sensor_id;sensor_type;location;lat;lon;timestamp;temperature;humidity
12977;DHT22;6553;48.412;9.514;2022-12-18T00:01:24;17.20;53.80
12977;DHT22;6553;48.412;9.514;2022-12-18T00:03:59;17.20;53.70
12977;DHT22;6553;48.412;9.514;2022-12-18T00:06:28;17.10;53.60
12977;DHT22;6553;48.412;9.514;2022-12-18T00:08:57;17.20;53.80
12977;DHT22;6553;48.412;9.514;2022-12-18T00:11:25;17.20;53.80
12977;DHT22;6553;48.412;9.514;2022-12-18T00:13:54;17.20;53.80
12977;DHT22;6553;48.412;9.514;2022-12-18T00:16:24;17.20;53.80
12977;DHT22;6553;48.412;9.514;2022-12-18T00:18:54;17.20;53.70
12977;DHT22;6553;48.412;9.514;2022-12-18T00:21:23;17.20;53.70
12977;DHT22;6553;48.412;9.514;2022-12-18T00:23:50;17.20;53.70
12977;DHT22;6553;48.412;9.514;2022-12-18T00:26:22;17.10;53.90
12977;DHT22;6553;48.412;9.514;2022-12-18T00:28:54;17.20;53.60
12977;DHT22;6553;48.412;9.514;2022-12-18T00:31:24;17.10;53.40
12977;DHT22;6553;48.412;9.514;2022-12-18T00:33:54;17.10;53.40
12977;DHT22;6553;48.412;9.514;2022-12-18T00:36:24;17.10;53.40
12977;DHT22;6553;48.412;9.514;2022-12-18T00:38:53;17.10;53.30
12977;DHT22;6553;48.412;9.514;2022-12-18T00:41:20;17.10;53.30
12977;DHT22;6553;48.412;9.514;2022-12-18T00:44:05;17.10;53.20
12977;DHT22;6553;48.412;9.514;2022-12-18T00:46:33;17.10;53.30
12977;DHT22;6553;48.412;9.514;2022-12-18T00:48:59;17.10;53.30
12977;DHT22;6553;48.412;9.514;2022-12-18T00:51:24;17.10;53.20
12977;DHT22;6553;48.412;9.514;2022-12-18T00:53:51;17.10;53.20
12977;DHT22;6553;48.412;9.514;2022-12-18T00:56:16;17.10;53.20
12977;DHT22;6553;48.412;9.514;2022-12-18T00:58:42;17.10;53.30
12977;DHT22;6553;48.412;9.514;2022-12-18T01:01:08;17.10;53.10
12977;DHT22;6553;48.412;9.514;2022-12-18T01:03:34;17.10;53.10
12977;DHT22;6553;48.412;9.514;2022-12-18T01:06:08;17.10;53.00
12977;DHT22;6553;48.412;9.514;2022-12-18T01:08:37;17.10;53.00
12977;DHT22;6553;48.412;9.514;2022-12-18T01:11:09;17.10;53.00
12977;DHT22;6553;48.412;9.514;2022-12-18T01:13:38;17.10;52.90
12977;DHT22;6553;48.412;9.514;2022-12-18T01:16:04;17.10;52.80
12977;DHT22;6553;48.412;9.514;2022-12-18T01:18:33;17.10;52.90
12977;DHT22;6553;48.412;9.514;2022-12-18T01:20:59;17.10;52.80
12977;DHT22;6553;48.412;9.514;2022-12-18T01:23:24;17.10;52.80
12977;DHT22;6553;48.412;9.514;2022-12-18T01:25:52;17.10;52.80
12977;DHT22;6553;48.412;9.514;2022-12-18T01:28:17;17.10;52.70
12977;DHT22;6553;48.412;9.514;2022-12-18T01:30:43;17.10;52.60
12977;DHT22;6553;48.412;9.514;2022-12-18T01:33:09;17.10;52.70
12977;DHT22;6553;48.412;9.514;2022-12-18T01:35:40;17.10;52.80
12977;DHT22;6553;48.412;9.514;2022-12-18T01:38:07;17.10;52.80
12977;DHT22;6553;48.412;9.514;2022-12-18T01:40:33;17.10;52.60
12977;DHT22;6553;48.412;9.514;2022-12-18T01:42:59;17.10;52.60
12977;DHT22;6553;48.412;9.514;2022-12-18T01:45:28;17.10;52.60
12977;DHT22;6553;48.412;9.514;2022-12-18T01:47:56;17.10;52.60
12977;DHT22;6553;48.412;9.514;2022-12-18T01:50:36;17.10;52.60
12977;DHT22;6553;48.412;9.514;2022-12-18T01:53:20;17.10;52.50
12977;DHT22;6553;48.412;9.514;2022-12-18T01:55:56;17.10;52.50
12977;DHT22;6553;48.412;9.514;2022-12-18T02:01:02;17.10;52.50
12977;DHT22;6553;48.412;9.514;2022-12-18T02:03:31;17.10;52.40
12977;DHT22;6553;48.412;9.514;2022-12-18T02:06:13;17.10;52.40
12977;DHT22;6553;48.412;9.514;2022-12-18T02:09:09;17.10;52.40
12977;DHT22;6553;48.412;9.514;2022-12-18T02:11:49;17.10;52.40
12977;DHT22;6553;48.412;9.514;2022-12-18T02:17:51;17.10;52.20
12977;DHT22;6553;48.412;9.514;2022-12-18T02:25:53;17.10;52.20
12977;DHT22;6553;48.412;9.514;2022-12-18T02:28:33;17.10;52.20
12977;DHT22;6553;48.412;9.514;2022-12-18T02:31:07;17.10;52.10
12977;DHT22;6553;48.412;9.514;2022-12-18T02:33:37;17.10;52.10
12977;DHT22;6553;48.412;9.514;2022-12-18T02:36:06;17.10;52.10
12977;DHT22;6553;48.412;9.514;2022-12-18T02:38:34;17.10;52.10
12977;DHT22;6553;48.412;9.514;2022-12-18T02:41:08;17.10;52.10
12977;DHT22;6553;48.412;9.514;2022-12-18T02:43:35;17.10;52.10
12977;DHT22;6553;48.412;9.514;2022-12-18T02:46:31;17.10;52.10
12977;DHT22;6553;48.412;9.514;2022-12-18T02:52:18;17.10;52.00
12977;DHT22;6553;48.412;9.514;2022-12-18T02:57:41;17.10;52.00
12977;DHT22;6553;48.412;9.514;2022-12-18T03:00:31;17.10;51.90
12977;DHT22;6553;48.412;9.514;2022-12-18T03:03:18;17.10;51.90
12977;DHT22;6553;48.412;9.514;2022-12-18T03:06:10;17.10;51.90
12977;DHT22;6553;48.412;9.514;2022-12-18T03:08:47;17.10;52.00
12977;DHT22;6553;48.412;9.514;2022-12-18T03:11:17;17.00;51.80
12977;DHT22;6553;48.412;9.514;2022-12-18T03:14:06;17.10;51.90
12977;DHT22;6553;48.412;9.514;2022-12-18T03:16:34;17.00;51.80
12977;DHT22;6553;48.412;9.514;2022-12-18T03:19:08;17.10;51.80
12977;DHT22;6553;48.412;9.514;2022-12-18T03:21:49;17.10;51.70
12977;DHT22;6553;48.412;9.514;2022-12-18T03:24:24;17.10;51.80
12977;DHT22;6553;48.412;9.514;2022-12-18T03:26:54;17.00;51.70
12977;DHT22;6553;48.412;9.514;2022-12-18T03:29:35;17.00;51.70
12977;DHT22;6553;48.412;9.514;2022-12-18T03:32:31;17.10;51.60
12977;DHT22;6553;48.412;9.514;2022-12-18T03:35:17;17.00;51.60
12977;DHT22;6553;48.412;9.514;2022-12-18T03:37:46;17.10;51.60
12977;DHT22;6553;48.412;9.514;2022-12-18T03:40:13;17.00;51.60
12977;DHT22;6553;48.412;9.514;2022-12-18T03:42:47;17.00;51.50
12977;DHT22;6553;48.412;9.514;2022-12-18T03:45:32;17.00;51.40
12977;DHT22;6553;48.412;9.514;2022-12-18T03:48:19;17.10;51.50
12977;DHT22;6553;48.412;9.514;2022-12-18T03:51:08;17.10;51.50
12977;DHT22;6553;48.412;9.514;2022-12-18T03:53:48;17.00;51.40
12977;DHT22;6553;48.412;9.514;2022-12-18T03:56:26;17.00;51.40
12977;DHT22;6553;48.412;9.514;2022-12-18T03:58:59;17.10;51.50
12977;DHT22;6553;48.412;9.514;2022-12-18T04:01:34;17.00;51.40
12977;DHT22;6553;48.412;9.514;2022-12-18T04:04:05;17.00;51.40
12977;DHT22;6553;48.412;9.514;2022-12-18T04:06:35;17.00;51.40
12977;DHT22;6553;48.412;9.514;2022-12-18T04:09:04;17.10;51.40
12977;DHT22;6553;48.412;9.514;2022-12-18T04:11:32;17.10;51.40
12977;DHT22;6553;48.412;9.514;2022-12-18T04:13:59;17.10;51.30
12977;DHT22;6553;48.412;9.514;2022-12-18T04:16:26;17.00;51.20
12977;DHT22;6553;48.412;9.514;2022-12-18T04:18:55;17.00;51.30
12977;DHT22;6553;48.412;9.514;2022-12-18T04:21:23;17.00;51.30
12977;DHT22;6553;48.412;9.514;2022-12-18T04:23:49;17.00;51.30
12977;DHT22;6553;48.412;9.514;2022-12-18T04:26:18;17.00;51.30
12977;DHT22;6553;48.412;9.514;2022-12-18T04:29:09;17.00;51.30
12977;DHT22;6553;48.412;9.514;2022-12-18T04:31:36;17.00;51.20
12977;DHT22;6553;48.412;9.514;2022-12-18T04:34:02;17.00;51.20
12977;DHT22;6553;48.412;9.514;2022-12-18T04:36:34;17.00;51.20
12977;DHT22;6553;48.412;9.514;2022-12-18T04:39:00;17.00;51.20
12977;DHT22;6553;48.412;9.514;2022-12-18T04:41:26;17.00;51.20
12977;DHT22;6553;48.412;9.514;2022-12-18T04:43:53;17.00;51.10
12977;DHT22;6553;48.412;9.514;2022-12-18T04:46:18;17.00;51.10
12977;DHT22;6553;48.412;9.514;2022-12-18T04:48:45;17.00;51.10
12977;DHT22;6553;48.412;9.514;2022-12-18T04:51:12;17.00;51.10
12977;DHT22;6553;48.412;9.514;2022-12-18T04:53:38;17.00;51.00
12977;DHT22;6553;48.412;9.514;2022-12-18T04:56:13;17.00;51.10
12977;DHT22;6553;48.412;9.514;2022-12-18T04:58:41;17.00;51.00
12977;DHT22;6553;48.412;9.514;2022-12-18T05:01:09;17.00;51.10
12977;DHT22;6553;48.412;9.514;2022-12-18T05:03:37;17.00;51.00
12977;DHT22;6553;48.412;9.514;2022-12-18T05:06:04;17.00;51.00
12977;DHT22;6553;48.412;9.514;2022-12-18T05:08:30;17.00;51.00
12977;DHT22;6553;48.412;9.514;2022-12-18T05:11:12;17.00;51.10
12977;DHT22;6553;48.412;9.514;2022-12-18T05:13:42;17.00;51.00
12977;DHT22;6553;48.412;9.514;2022-12-18T05:16:09;17.00;50.90
12977;DHT22;6553;48.412;9.514;2022-12-18T05:18:36;17.00;50.90
12977;DHT22;6553;48.412;9.514;2022-12-18T05:21:03;17.00;51.00
12977;DHT22;6553;48.412;9.514;2022-12-18T05:23:29;17.00;50.90
12977;DHT22;6553;48.412;9.514;2022-12-18T05:26:00;17.00;50.90
12977;DHT22;6553;48.412;9.514;2022-12-18T05:28:30;17.00;50.90
12977;DHT22;6553;48.412;9.514;2022-12-18T05:31:00;17.00;50.90
12977;DHT22;6553;48.412;9.514;2022-12-18T05:33:31;17.00;50.90
12977;DHT22;6553;48.412;9.514;2022-12-18T05:36:05;17.00;50.80
12977;DHT22;6553;48.412;9.514;2022-12-18T05:38:35;17.00;50.90
12977;DHT22;6553;48.412;9.514;2022-12-18T05:41:02;17.00;50.80
12977;DHT22;6553;48.412;9.514;2022-12-18T05:43:29;17.00;50.80
12977;DHT22;6553;48.412;9.514;2022-12-18T05:45:55;17.00;50.80
12977;DHT22;6553;48.412;9.514;2022-12-18T05:48:22;17.00;50.80
12977;DHT22;6553;48.412;9.514;2022-12-18T05:50:49;17.00;50.80
12977;DHT22;6553;48.412;9.514;2022-12-18T05:53:17;17.00;50.80
12977;DHT22;6553;48.412;9.514;2022-12-18T05:55:45;17.00;50.80
12977;DHT22;6553;48.412;9.514;2022-12-18T05:58:12;17.00;50.70
12977;DHT22;6553;48.412;9.514;2022-12-18T06:00:42;17.00;50.70
12977;DHT22;6553;48.412;9.514;2022-12-18T06:03:12;17.00;50.80
12977;DHT22;6553;48.412;9.514;2022-12-18T06:05:43;17.00;50.70
12977;DHT22;6553;48.412;9.514;2022-12-18T06:08:11;17.00;50.70
12977;DHT22;6553;48.412;9.514;2022-12-18T06:10:38;17.00;50.60
12977;DHT22;6553;48.412;9.514;2022-12-18T06:13:05;17.00;50.60
12977;DHT22;6553;48.412;9.514;2022-12-18T06:15:31;17.00;50.60
12977;DHT22;6553;48.412;9.514;2022-12-18T06:17:57;17.00;50.70
12977;DHT22;6553;48.412;9.514;2022-12-18T06:20:23;17.00;50.70
12977;DHT22;6553;48.412;9.514;2022-12-18T06:22:49;17.00;50.70
12977;DHT22;6553;48.412;9.514;2022-12-18T06:25:15;17.00;50.80
12977;DHT22;6553;48.412;9.514;2022-12-18T06:27:40;17.00;50.70
12977;DHT22;6553;48.412;9.514;2022-12-18T06:30:07;17.00;50.60
12977;DHT22;6553;48.412;9.514;2022-12-18T06:32:33;17.00;50.60
12977;DHT22;6553;48.412;9.514;2022-12-18T06:34:59;17.00;50.60
12977;DHT22;6553;48.412;9.514;2022-12-18T06:37:24;17.00;50.60
12977;DHT22;6553;48.412;9.514;2022-12-18T06:39:52;17.00;50.60
12977;DHT22;6553;48.412;9.514;2022-12-18T06:42:18;17.00;50.60
12977;DHT22;6553;48.412;9.514;2022-12-18T06:44:47;17.00;50.60
12977;DHT22;6553;48.412;9.514;2022-12-18T06:47:12;17.00;50.60
12977;DHT22;6553;48.412;9.514;2022-12-18T06:49:38;17.00;50.60
12977;DHT22;6553;48.412;9.514;2022-12-18T06:52:04;17.00;50.60
12977;DHT22;6553;48.412;9.514;2022-12-18T06:54:29;16.90;50.50
12977;DHT22;6553;48.412;9.514;2022-12-18T06:56:55;17.00;50.50
12977;DHT22;6553;48.412;9.514;2022-12-18T06:59:21;17.00;50.50
12977;DHT22;6553;48.412;9.514;2022-12-18T07:01:47;17.00;50.50
12977;DHT22;6553;48.412;9.514;2022-12-18T07:04:12;17.00;50.50
12977;DHT22;6553;48.412;9.514;2022-12-18T07:06:38;17.00;50.40
12977;DHT22;6553;48.412;9.514;2022-12-18T07:09:04;17.00;50.40
12977;DHT22;6553;48.412;9.514;2022-12-18T07:11:32;17.00;51.00
12977;DHT22;6553;48.412;9.514;2022-12-18T07:13:58;17.00;50.50
12977;DHT22;6553;48.412;9.514;2022-12-18T07:16:24;17.00;50.50
12977;DHT22;6553;48.412;9.514;2022-12-18T07:18:51;17.00;50.50
12977;DHT22;6553;48.412;9.514;2022-12-18T07:21:18;17.00;50.40
12977;DHT22;6553;48.412;9.514;2022-12-18T07:23:45;17.00;50.40
12977;DHT22;6553;48.412;9.514;2022-12-18T07:26:14;17.00;50.40
12977;DHT22;6553;48.412;9.514;2022-12-18T07:28:42;17.00;50.40
12977;DHT22;6553;48.412;9.514;2022-12-18T07:31:12;17.00;50.40
12977;DHT22;6553;48.412;9.514;2022-12-18T07:33:40;16.90;50.40
12977;DHT22;6553;48.412;9.514;2022-12-18T07:36:07;17.00;50.40
12977;DHT22;6553;48.412;9.514;2022-12-18T07:38:35;17.00;50.40
12977;DHT22;6553;48.412;9.514;2022-12-18T07:43:29;16.90;50.30
12977;DHT22;6553;48.412;9.514;2022-12-18T07:45:55;16.90;50.30
12977;DHT22;6553;48.412;9.514;2022-12-18T07:48:20;16.90;50.30
12977;DHT22;6553;48.412;9.514;2022-12-18T07:50:46;16.90;50.20
12977;DHT22;6553;48.412;9.514;2022-12-18T07:53:12;17.00;50.30
12977;DHT22;6553;48.412;9.514;2022-12-18T07:55:37;17.00;50.20
12977;DHT22;6553;48.412;9.514;2022-12-18T07:58:04;17.00;50.30
12977;DHT22;6553;48.412;9.514;2022-12-18T08:00:30;17.00;50.20
12977;DHT22;6553;48.412;9.514;2022-12-18T08:02:57;16.90;50.20
12977;DHT22;6553;48.412;9.514;2022-12-18T08:05:23;16.90;50.10
12977;DHT22;6553;48.412;9.514;2022-12-18T08:07:49;16.90;50.10
12977;DHT22;6553;48.412;9.514;2022-12-18T08:10:15;16.90;50.10
12977;DHT22;6553;48.412;9.514;2022-12-18T08:12:40;16.90;50.40
12977;DHT22;6553;48.412;9.514;2022-12-18T08:15:06;16.90;50.10
12977;DHT22;6553;48.412;9.514;2022-12-18T08:17:34;16.90;50.10
12977;DHT22;6553;48.412;9.514;2022-12-18T08:19:59;16.90;50.10
12977;DHT22;6553;48.412;9.514;2022-12-18T08:22:25;16.90;50.00
12977;DHT22;6553;48.412;9.514;2022-12-18T08:24:51;16.90;50.10
12977;DHT22;6553;48.412;9.514;2022-12-18T08:27:17;16.90;50.00
12977;DHT22;6553;48.412;9.514;2022-12-18T08:29:43;16.90;50.00
12977;DHT22;6553;48.412;9.514;2022-12-18T08:32:08;16.90;50.00
12977;DHT22;6553;48.412;9.514;2022-12-18T08:34:34;16.90;50.00
12977;DHT22;6553;48.412;9.514;2022-12-18T08:37:00;17.00;50.10
12977;DHT22;6553;48.412;9.514;2022-12-18T08:39:26;16.90;50.00
12977;DHT22;6553;48.412;9.514;2022-12-18T08:41:52;16.90;50.00
12977;DHT22;6553;48.412;9.514;2022-12-18T08:44:36;16.90;50.00
12977;DHT22;6553;48.412;9.514;2022-12-18T08:47:06;16.90;50.00
12977;DHT22;6553;48.412;9.514;2022-12-18T08:49:34;17.00;50.00
12977;DHT22;6553;48.412;9.514;2022-12-18T08:52:00;17.00;50.00
12977;DHT22;6553;48.412;9.514;2022-12-18T08:54:27;17.00;50.00
12977;DHT22;6553;48.412;9.514;2022-12-18T08:56:52;17.00;50.00
12977;DHT22;6553;48.412;9.514;2022-12-18T08:59:19;17.00;50.00
12977;DHT22;6553;48.412;9.514;2022-12-18T09:01:45;17.00;50.00
12977;DHT22;6553;48.412;9.514;2022-12-18T09:04:12;17.00;50.00
12977;DHT22;6553;48.412;9.514;2022-12-18T09:06:39;17.00;50.00
12977;DHT22;6553;48.412;9.514;2022-12-18T09:09:06;17.00;50.00
12977;DHT22;6553;48.412;9.514;2022-12-18T09:11:32;17.00;49.90
12977;DHT22;6553;48.412;9.514;2022-12-18T09:14:00;17.00;49.90
12977;DHT22;6553;48.412;9.514;2022-12-18T09:16:27;17.00;49.80
12977;DHT22;6553;48.412;9.514;2022-12-18T09:18:57;17.00;49.90
12977;DHT22;6553;48.412;9.514;2022-12-18T09:21:30;17.00;49.80
12977;DHT22;6553;48.412;9.514;2022-12-18T09:23:58;17.00;49.80
12977;DHT22;6553;48.412;9.514;2022-12-18T09:26:25;17.00;49.80
12977;DHT22;6553;48.412;9.514;2022-12-18T09:28:51;17.00;49.70
12977;DHT22;6553;48.412;9.514;2022-12-18T09:31:20;17.00;49.80
12977;DHT22;6553;48.412;9.514;2022-12-18T09:33:48;17.00;49.70
12977;DHT22;6553;48.412;9.514;2022-12-18T09:36:16;17.00;49.70
12977;DHT22;6553;48.412;9.514;2022-12-18T09:38:43;17.00;49.70
12977;DHT22;6553;48.412;9.514;2022-12-18T09:44:29;17.10;49.70
12977;DHT22;6553;48.412;9.514;2022-12-18T09:47:18;17.00;49.60
12977;DHT22;6553;48.412;9.514;2022-12-18T09:49:55;17.00;49.70
12977;DHT22;6553;48.412;9.514;2022-12-18T09:52:34;17.00;49.60
12977;DHT22;6553;48.412;9.514;2022-12-18T09:55:33;17.00;49.70
12977;DHT22;6553;48.412;9.514;2022-12-18T09:58:28;17.00;49.70
12977;DHT22;6553;48.412;9.514;2022-12-18T10:00:58;17.00;49.50
12977;DHT22;6553;48.412;9.514;2022-12-18T10:03:24;17.00;49.50
12977;DHT22;6553;48.412;9.514;2022-12-18T10:08:37;17.00;49.60
12977;DHT22;6553;48.412;9.514;2022-12-18T10:14:27;17.00;49.50
12977;DHT22;6553;48.412;9.514;2022-12-18T10:17:24;17.00;49.60
12977;DHT22;6553;48.412;9.514;2022-12-18T10:20:09;17.10;49.60
12977;DHT22;6553;48.412;9.514;2022-12-18T10:28:16;17.10;49.50
12977;DHT22;6553;48.412;9.514;2022-12-18T10:30:44;17.10;49.60
12977;DHT22;6553;48.412;9.514;2022-12-18T10:33:22;17.10;49.60
12977;DHT22;6553;48.412;9.514;2022-12-18T10:35:53;17.20;53.60
12977;DHT22;6553;48.412;9.514;2022-12-18T10:38:31;17.30;51.90
12977;DHT22;6553;48.412;9.514;2022-12-18T10:40:58;17.30;52.10
12977;DHT22;6553;48.412;9.514;2022-12-18T10:43:39;17.30;52.00
12977;DHT22;6553;48.412;9.514;2022-12-18T10:51:27;17.20;51.50
12977;DHT22;6553;48.412;9.514;2022-12-18T10:54:23;17.20;51.40
12977;DHT22;6553;48.412;9.514;2022-12-18T10:56:49;17.20;51.20
12977;DHT22;6553;48.412;9.514;2022-12-18T10:59:17;17.20;51.20
12977;DHT22;6553;48.412;9.514;2022-12-18T11:01:54;17.30;51.30
12977;DHT22;6553;48.412;9.514;2022-12-18T11:04:23;17.30;51.20
12977;DHT22;6553;48.412;9.514;2022-12-18T11:07:09;17.20;51.00
12977;DHT22;6553;48.412;9.514;2022-12-18T11:09:38;17.20;51.00
12977;DHT22;6553;48.412;9.514;2022-12-18T11:12:18;17.20;51.40
12977;DHT22;6553;48.412;9.514;2022-12-18T11:14:52;17.30;51.20
12977;DHT22;6553;48.412;9.514;2022-12-18T11:17:27;17.30;51.20
12977;DHT22;6553;48.412;9.514;2022-12-18T11:20:25;17.30;51.20
12977;DHT22;6553;48.412;9.514;2022-12-18T11:22:59;17.30;51.10
12977;DHT22;6553;48.412;9.514;2022-12-18T11:25:31;17.30;51.20
12977;DHT22;6553;48.412;9.514;2022-12-18T11:28:01;17.30;51.00
12977;DHT22;6553;48.412;9.514;2022-12-18T11:31:09;17.30;51.00
12977;DHT22;6553;48.412;9.514;2022-12-18T11:36:50;17.30;50.80
12977;DHT22;6553;48.412;9.514;2022-12-18T11:39:42;17.30;50.80
12977;DHT22;6553;48.412;9.514;2022-12-18T11:42:21;17.30;50.80
12977;DHT22;6553;48.412;9.514;2022-12-18T11:45:00;17.30;50.70
12977;DHT22;6553;48.412;9.514;2022-12-18T11:51:02;17.30;50.70
12977;DHT22;6553;48.412;9.514;2022-12-18T11:53:34;17.30;50.60
12977;DHT22;6553;48.412;9.514;2022-12-18T11:56:18;17.30;50.50
12977;DHT22;6553;48.412;9.514;2022-12-18T12:02:21;17.30;50.50
12977;DHT22;6553;48.412;9.514;2022-12-18T12:17:44;17.30;50.40
12977;DHT22;6553;48.412;9.514;2022-12-18T12:21:08;17.30;50.30
12977;DHT22;6553;48.412;9.514;2022-12-18T12:23:54;17.30;50.30
12977;DHT22;6553;48.412;9.514;2022-12-18T12:26:49;17.30;50.30
12977;DHT22;6553;48.412;9.514;2022-12-18T12:33:00;17.30;50.20
12977;DHT22;6553;48.412;9.514;2022-12-18T12:38:27;17.30;50.20
12977;DHT22;6553;48.412;9.514;2022-12-18T12:41:04;17.40;50.20
12977;DHT22;6553;48.412;9.514;2022-12-18T12:43:52;17.40;50.20
12977;DHT22;6553;48.412;9.514;2022-12-18T12:46:23;17.40;50.20
12977;DHT22;6553;48.412;9.514;2022-12-18T12:48:56;17.40;50.20
12977;DHT22;6553;48.412;9.514;2022-12-18T12:51:35;17.40;50.20
12977;DHT22;6553;48.412;9.514;2022-12-18T12:54:06;17.40;50.10
12977;DHT22;6553;48.412;9.514;2022-12-18T12:56:56;17.40;50.10
12977;DHT22;6553;48.412;9.514;2022-12-18T12:59:49;17.40;50.10
12977;DHT22;6553;48.412;9.514;2022-12-18T13:03:12;17.40;50.10
12977;DHT22;6553;48.412;9.514;2022-12-18T13:08:10;17.30;50.00
12977;DHT22;6553;48.412;9.514;2022-12-18T13:10:46;17.40;50.10
12977;DHT22;6553;48.412;9.514;2022-12-18T13:13:16;17.40;50.10
12977;DHT22;6553;48.412;9.514;2022-12-18T13:15:47;17.40;50.10
12977;DHT22;6553;48.412;9.514;2022-12-18T13:18:23;17.40;50.00
12977;DHT22;6553;48.412;9.514;2022-12-18T13:21:18;17.40;50.10
12977;DHT22;6553;48.412;9.514;2022-12-18T13:23:46;17.40;50.00
12977;DHT22;6553;48.412;9.514;2022-12-18T13:36:37;17.40;50.00
12977;DHT22;6553;48.412;9.514;2022-12-18T13:41:45;17.50;50.00
12977;DHT22;6553;48.412;9.514;2022-12-18T13:44:24;17.50;50.00
12977;DHT22;6553;48.412;9.514;2022-12-18T13:46:54;17.50;49.90
12977;DHT22;6553;48.412;9.514;2022-12-18T13:49:39;17.40;49.80
12977;DHT22;6553;48.412;9.514;2022-12-18T13:52:26;17.50;49.90
12977;DHT22;6553;48.412;9.514;2022-12-18T13:54:59;17.50;49.90
12977;DHT22;6553;48.412;9.514;2022-12-18T13:57:30;17.40;49.80
12977;DHT22;6553;48.412;9.514;2022-12-18T13:59:59;17.50;50.50
12977;DHT22;6553;48.412;9.514;2022-12-18T14:02:49;17.50;49.90
12977;DHT22;6553;48.412;9.514;2022-12-18T14:05:23;17.50;49.90
12977;DHT22;6553;48.412;9.514;2022-12-18T14:07:52;17.50;49.80
12977;DHT22;6553;48.412;9.514;2022-12-18T14:10:20;17.50;49.90
12977;DHT22;6553;48.412;9.514;2022-12-18T14:12:49;17.40;49.80
12977;DHT22;6553;48.412;9.514;2022-12-18T14:15:32;17.50;49.80
12977;DHT22;6553;48.412;9.514;2022-12-18T14:18:24;17.50;49.80
12977;DHT22;6553;48.412;9.514;2022-12-18T14:20:57;17.50;49.70
12977;DHT22;6553;48.412;9.514;2022-12-18T14:23:33;17.50;49.80
12977;DHT22;6553;48.412;9.514;2022-12-18T14:26:01;17.50;49.80
12977;DHT22;6553;48.412;9.514;2022-12-18T14:28:28;17.50;49.70
12977;DHT22;6553;48.412;9.514;2022-12-18T14:30:55;17.50;49.70
12977;DHT22;6553;48.412;9.514;2022-12-18T14:33:26;17.50;49.70
12977;DHT22;6553;48.412;9.514;2022-12-18T14:38:37;17.50;49.70
12977;DHT22;6553;48.412;9.514;2022-12-18T14:41:06;17.50;49.70
12977;DHT22;6553;48.412;9.514;2022-12-18T14:43:39;17.50;49.60
12977;DHT22;6553;48.412;9.514;2022-12-18T14:49:29;17.50;49.60
12977;DHT22;6553;48.412;9.514;2022-12-18T14:54:30;17.50;49.60
12977;DHT22;6553;48.412;9.514;2022-12-18T14:57:05;17.50;49.60
12977;DHT22;6553;48.412;9.514;2022-12-18T14:59:39;17.50;49.50
12977;DHT22;6553;48.412;9.514;2022-12-18T15:04:48;17.50;49.50
12977;DHT22;6553;48.412;9.514;2022-12-18T15:07:47;17.50;49.60
12977;DHT22;6553;48.412;9.514;2022-12-18T15:18:04;17.50;49.30
12977;DHT22;6553;48.412;9.514;2022-12-18T15:20:49;17.50;49.50
12977;DHT22;6553;48.412;9.514;2022-12-18T15:23:29;17.50;49.40
12977;DHT22;6553;48.412;9.514;2022-12-18T15:26:05;17.50;49.30
12977;DHT22;6553;48.412;9.514;2022-12-18T15:28:37;17.50;49.40
12977;DHT22;6553;48.412;9.514;2022-12-18T15:33:42;17.50;49.30
12977;DHT22;6553;48.412;9.514;2022-12-18T15:36:19;17.50;49.30
12977;DHT22;6553;48.412;9.514;2022-12-18T15:38:52;17.50;49.30
12977;DHT22;6553;48.412;9.514;2022-12-18T15:41:20;17.50;49.30
12977;DHT22;6553;48.412;9.514;2022-12-18T15:43:49;17.50;49.30
12977;DHT22;6553;48.412;9.514;2022-12-18T15:46:24;17.50;49.30
12977;DHT22;6553;48.412;9.514;2022-12-18T15:48:52;17.50;49.30
12977;DHT22;6553;48.412;9.514;2022-12-18T15:54:05;17.50;49.30
12977;DHT22;6553;48.412;9.514;2022-12-18T15:56:36;17.50;49.30
12977;DHT22;6553;48.412;9.514;2022-12-18T15:59:21;17.50;49.30
12977;DHT22;6553;48.412;9.514;2022-12-18T16:01:48;17.50;49.30
12977;DHT22;6553;48.412;9.514;2022-12-18T16:04:18;17.60;49.40
12977;DHT22;6553;48.412;9.514;2022-12-18T16:06:49;17.60;49.30
12977;DHT22;6553;48.412;9.514;2022-12-18T16:09:14;17.60;49.30
12977;DHT22;6553;48.412;9.514;2022-12-18T16:11:42;17.60;49.30
12977;DHT22;6553;48.412;9.514;2022-12-18T16:14:21;17.50;49.30
12977;DHT22;6553;48.412;9.514;2022-12-18T16:16:51;17.50;49.30
12977;DHT22;6553;48.412;9.514;2022-12-18T16:19:19;17.60;49.30
12977;DHT22;6553;48.412;9.514;2022-12-18T16:21:47;17.60;49.30
12977;DHT22;6553;48.412;9.514;2022-12-18T16:24:31;17.60;49.30
12977;DHT22;6553;48.412;9.514;2022-12-18T16:26:59;17.60;49.40
12977;DHT22;6553;48.412;9.514;2022-12-18T16:29:27;17.60;49.30
12977;DHT22;6553;48.412;9.514;2022-12-18T16:31:55;17.60;49.40
12977;DHT22;6553;48.412;9.514;2022-12-18T16:34:25;17.60;49.30
12977;DHT22;6553;48.412;9.514;2022-12-18T16:36:54;17.60;49.30
12977;DHT22;6553;48.412;9.514;2022-12-18T16:39:22;17.60;49.30
12977;DHT22;6553;48.412;9.514;2022-12-18T16:41:48;17.60;49.30
12977;DHT22;6553;48.412;9.514;2022-12-18T16:44:14;17.60;49.30
12977;DHT22;6553;48.412;9.514;2022-12-18T16:46:40;17.60;49.30
12977;DHT22;6553;48.412;9.514;2022-12-18T16:49:11;17.60;49.30
12977;DHT22;6553;48.412;9.514;2022-12-18T16:51:38;17.60;49.30
12977;DHT22;6553;48.412;9.514;2022-12-18T16:54:05;17.70;49.40
12977;DHT22;6553;48.412;9.514;2022-12-18T16:56:31;17.70;49.40
12977;DHT22;6553;48.412;9.514;2022-12-18T16:58:59;17.60;49.30
12977;DHT22;6553;48.412;9.514;2022-12-18T17:01:27;17.60;49.30
12977;DHT22;6553;48.412;9.514;2022-12-18T17:04:01;17.70;49.40
12977;DHT22;6553;48.412;9.514;2022-12-18T17:06:32;17.60;49.20
12977;DHT22;6553;48.412;9.514;2022-12-18T17:09:05;17.70;49.40
12977;DHT22;6553;48.412;9.514;2022-12-18T17:11:34;17.70;49.40
12977;DHT22;6553;48.412;9.514;2022-12-18T17:14:09;17.70;49.40
12977;DHT22;6553;48.412;9.514;2022-12-18T17:16:46;17.60;49.30
12977;DHT22;6553;48.412;9.514;2022-12-18T17:19:13;17.60;49.30
12977;DHT22;6553;48.412;9.514;2022-12-18T17:21:42;17.70;49.40
12977;DHT22;6553;48.412;9.514;2022-12-18T17:24:09;17.60;49.30
12977;DHT22;6553;48.412;9.514;2022-12-18T17:26:35;17.70;49.30
12977;DHT22;6553;48.412;9.514;2022-12-18T17:29:01;17.60;49.30
12977;DHT22;6553;48.412;9.514;2022-12-18T17:31:29;17.70;49.40
12977;DHT22;6553;48.412;9.514;2022-12-18T17:33:56;17.70;49.30
12977;DHT22;6553;48.412;9.514;2022-12-18T17:36:23;17.70;49.20
12977;DHT22;6553;48.412;9.514;2022-12-18T17:38:57;17.70;49.10
12977;DHT22;6553;48.412;9.514;2022-12-18T17:41:25;17.70;49.20
12977;DHT22;6553;48.412;9.514;2022-12-18T17:43:54;17.70;49.10
12977;DHT22;6553;48.412;9.514;2022-12-18T17:46:23;17.70;49.10
12977;DHT22;6553;48.412;9.514;2022-12-18T17:48:51;17.70;49.10
12977;DHT22;6553;48.412;9.514;2022-12-18T17:51:19;17.70;49.10
12977;DHT22;6553;48.412;9.514;2022-12-18T17:53:44;17.70;49.10
12977;DHT22;6553;48.412;9.514;2022-12-18T17:56:12;17.70;49.10
12977;DHT22;6553;48.412;9.514;2022-12-18T17:58:40;17.70;49.10
12977;DHT22;6553;48.412;9.514;2022-12-18T18:01:06;17.80;49.10
12977;DHT22;6553;48.412;9.514;2022-12-18T18:03:34;17.70;49.10